Terminal Aerodrome Forecast
Issued by NWS

Home | Current Version | Previous Version | Text Only | Print | Product List | Glossary On
Versions: 1 2 3 4 5 6 7 8 9 10 11 12 13 14 15 16
252
FTUS42 KGSP 120537
TAFGMU
TAF
KGMU 120537Z 1206/1306 04005KT P6SM SCT140
     FM120900 03005KT P6SM BKN110
     FM122000 29005KT P6SM BKN100
     FM122100 24007KT P6SM SCT250
     FM130200 28008KT P6SM FEW250=

USA.gov is the U.S. government's official web portal to all federal, state and local government web resources and services.